WMT3051 LROP-LIBD
Flight info
| Callsign | WMT3051 |
|---|---|
| Flight time | 1h 21m |
| Altitude | 38000 |
| Route | POLUN DCT VIKBI DCT ELDET DCT ANASA DCT RAMAP DCT POD DCT PINUK DCT CRAYE/N0333F190 Z636 ENOXA |
| Aircraft | A20N/M-SDE1E2E3FGIJ1J4RWXY/LB1 |
Departure
| Time | 2026-05-08 15:44 |
|---|---|
| Airport | Bucharest Henri Coandă International Airport (LROP) |
Arrival
| Time | 2026-05-08 17:06 |
|---|---|
| Airport | Bari Karol Wojtyła International Airport (LIBD) |
| Time | Latitude | Longitude | Altitude | Speed | Heading |
|---|---|---|---|---|---|
| 2026-05-08 15:28 | 44.56881 | 26.09039 | 314 ft | 0 kts | 173° |
| 2026-05-08 15:36 | 44.56885 | 26.09038 | 314 ft | 1 kts | 173° |
| 2026-05-08 15:36 | 44.56894 | 26.09036 | 314 ft | 1 kts | 173° |
| 2026-05-08 15:36 | 44.56901 | 26.09035 | 313 ft | 1 kts | 180° |
| 2026-05-08 15:37 | 44.56908 | 26.09035 | 313 ft | 1 kts | 183° |
| 2026-05-08 15:37 | 44.56916 | 26.09036 | 313 ft | 1 kts | 183° |
| 2026-05-08 15:37 | 44.56924 | 26.09036 | 311 ft | 1 kts | 185° |
| 2026-05-08 15:37 | 44.56931 | 26.09037 | 311 ft | 1 kts | 190° |
| 2026-05-08 15:38 | 44.56939 | 26.09039 | 314 ft | 1 kts | 199° |
| 2026-05-08 15:38 | 44.56946 | 26.09043 | 315 ft | 1 kts | 213° |
| 2026-05-08 15:38 | 44.56952 | 26.09049 | 312 ft | 1 kts | 228° |
| 2026-05-08 15:38 | 44.56957 | 26.09057 | 313 ft | 1 kts | 253° |
| 2026-05-08 15:39 | 44.56957 | 26.09058 | 313 ft | 0 kts | 256° |
| 2026-05-08 15:40 | 44.56956 | 26.09042 | 313 ft | 4 kts | 262° |
| 2026-05-08 15:40 | 44.56951 | 26.08988 | 315 ft | 7 kts | 264° |
| 2026-05-08 15:40 | 44.56944 | 26.08901 | 314 ft | 11 kts | 263° |
| 2026-05-08 15:40 | 44.56935 | 26.08784 | 314 ft | 14 kts | 265° |
| 2026-05-08 15:41 | 44.56925 | 26.08638 | 314 ft | 16 kts | 263° |
| 2026-05-08 15:41 | 44.56895 | 26.08475 | 314 ft | 18 kts | 262° |
| 2026-05-08 15:41 | 44.56845 | 26.08305 | 313 ft | 20 kts | 241° |
| 2026-05-08 15:41 | 44.56781 | 26.08126 | 312 ft | 21 kts | 248° |
| 2026-05-08 15:42 | 44.56742 | 26.07935 | 310 ft | 21 kts | 253° |
| 2026-05-08 15:42 | 44.56703 | 26.07744 | 310 ft | 16 kts | 254° |
| 2026-05-08 15:42 | 44.56641 | 26.07663 | 310 ft | 14 kts | 176° |
| 2026-05-08 15:42 | 44.56538 | 26.07682 | 310 ft | 17 kts | 174° |
| 2026-05-08 15:43 | 44.56471 | 26.07758 | 309 ft | 13 kts | 88° |
| 2026-05-08 15:43 | 44.56485 | 26.07956 | 311 ft | 44 kts | 85° |
| 2026-05-08 15:43 | 44.56544 | 26.08714 | 313 ft | 110 kts | 84° |
| 2026-05-08 15:43 | 44.56643 | 26.10033 | 318 ft | 159 kts | 84° |
| 2026-05-08 15:44 | 44.56771 | 26.11653 | 728 ft | 166 kts | 86° |
| 2026-05-08 15:44 | 44.56952 | 26.13248 | 1436 ft | 161 kts | 82° |
| 2026-05-08 15:44 | 44.57169 | 26.14772 | 2111 ft | 159 kts | 82° |
| 2026-05-08 15:44 | 44.57364 | 26.16365 | 2516 ft | 175 kts | 85° |
| 2026-05-08 15:45 | 44.57504 | 26.18161 | 2918 ft | 195 kts | 87° |
| 2026-05-08 15:45 | 44.57624 | 26.20186 | 3330 ft | 222 kts | 88° |
| 2026-05-08 15:45 | 44.57745 | 26.22435 | 3872 ft | 245 kts | 87° |
| 2026-05-08 15:45 | 44.57885 | 26.24970 | 4483 ft | 268 kts | 86° |
| 2026-05-08 15:46 | 44.58034 | 26.27595 | 5358 ft | 275 kts | 86° |
| 2026-05-08 15:46 | 44.57851 | 26.30254 | 6366 ft | 277 kts | 110° |
| 2026-05-08 15:46 | 44.56843 | 26.32555 | 7247 ft | 282 kts | 137° |
| 2026-05-08 15:46 | 44.55189 | 26.34009 | 8112 ft | 284 kts | 164° |
| 2026-05-08 15:47 | 44.53238 | 26.34457 | 9078 ft | 287 kts | 177° |
| 2026-05-08 15:47 | 44.51235 | 26.34655 | 10025 ft | 291 kts | 178° |
| 2026-05-08 15:47 | 44.49165 | 26.34843 | 10620 ft | 308 kts | 178° |
| 2026-05-08 15:47 | 44.46948 | 26.35085 | 10978 ft | 331 kts | 177° |
| 2026-05-08 15:48 | 44.42220 | 26.35716 | 12487 ft | 345 kts | 176° |
| 2026-05-08 15:48 | 44.39835 | 26.35455 | 13359 ft | 347 kts | 195° |
| 2026-05-08 15:48 | 44.37654 | 26.34038 | 14191 ft | 349 kts | 216° |
| 2026-05-08 15:49 | 44.35952 | 26.31606 | 14902 ft | 354 kts | 236° |
| 2026-05-08 15:49 | 44.34946 | 26.28453 | 15633 ft | 360 kts | 252° |
| 2026-05-08 15:49 | 44.34255 | 26.25075 | 16359 ft | 364 kts | 253° |
| 2026-05-08 15:49 | 44.33577 | 26.21655 | 17101 ft | 367 kts | 253° |
| 2026-05-08 15:50 | 44.32887 | 26.18204 | 17833 ft | 371 kts | 253° |
| 2026-05-08 15:50 | 44.32180 | 26.14723 | 18521 ft | 375 kts | 252° |
| 2026-05-08 15:50 | 44.31458 | 26.11210 | 19142 ft | 378 kts | 252° |
| 2026-05-08 15:50 | 44.30724 | 26.07666 | 19755 ft | 382 kts | 252° |
| 2026-05-08 15:51 | 44.29981 | 26.04096 | 20402 ft | 384 kts | 252° |
| 2026-05-08 15:51 | 44.29231 | 26.00500 | 21019 ft | 387 kts | 252° |
| 2026-05-08 15:51 | 44.28475 | 25.96879 | 21644 ft | 390 kts | 252° |
| 2026-05-08 15:51 | 44.27711 | 25.93228 | 22262 ft | 393 kts | 252° |
| 2026-05-08 15:52 | 44.26941 | 25.89555 | 22878 ft | 396 kts | 252° |
| 2026-05-08 15:52 | 44.26164 | 25.85853 | 23486 ft | 399 kts | 252° |
| 2026-05-08 15:52 | 44.25379 | 25.82122 | 23992 ft | 402 kts | 252° |
| 2026-05-08 15:52 | 44.24647 | 25.78338 | 24494 ft | 405 kts | 257° |
| 2026-05-08 15:53 | 44.24226 | 25.74443 | 25010 ft | 408 kts | 264° |
| 2026-05-08 15:53 | 44.24130 | 25.70465 | 25470 ft | 412 kts | 268° |
| 2026-05-08 15:53 | 44.24117 | 25.66453 | 25926 ft | 415 kts | 268° |
| 2026-05-08 15:53 | 44.24095 | 25.62412 | 26377 ft | 418 kts | 268° |
| 2026-05-08 15:54 | 44.24078 | 25.59725 | 26671 ft | 420 kts | 268° |
| 2026-05-08 15:54 | 44.24048 | 25.55639 | 27103 ft | 423 kts | 268° |
| 2026-05-08 15:54 | 44.24016 | 25.51525 | 27528 ft | 426 kts | 268° |
| 2026-05-08 15:54 | 44.23982 | 25.47389 | 27945 ft | 428 kts | 268° |
| 2026-05-08 15:55 | 44.23947 | 25.43224 | 28343 ft | 431 kts | 268° |
| 2026-05-08 15:55 | 44.23872 | 25.34816 | 29068 ft | 437 kts | 268° |
| 2026-05-08 15:55 | 44.23832 | 25.30560 | 29387 ft | 440 kts | 268° |
| 2026-05-08 15:56 | 44.23790 | 25.26280 | 29763 ft | 443 kts | 268° |
| 2026-05-08 15:56 | 44.23764 | 25.21970 | 30105 ft | 446 kts | 270° |
| 2026-05-08 15:56 | 44.23925 | 25.17644 | 30441 ft | 448 kts | 272° |
| 2026-05-08 15:56 | 44.24101 | 25.13294 | 30800 ft | 449 kts | 271° |
| 2026-05-08 15:57 | 44.24274 | 25.08945 | 31159 ft | 450 kts | 271° |
| 2026-05-08 15:57 | 44.24443 | 25.04592 | 31588 ft | 449 kts | 271° |
| 2026-05-08 15:57 | 44.24608 | 25.00259 | 32077 ft | 446 kts | 271° |
| 2026-05-08 15:57 | 44.24771 | 24.95947 | 32537 ft | 444 kts | 271° |
| 2026-05-08 15:58 | 44.24931 | 24.91644 | 32933 ft | 444 kts | 271° |
| 2026-05-08 15:58 | 44.25089 | 24.87356 | 33368 ft | 442 kts | 271° |
| 2026-05-08 15:58 | 44.25245 | 24.83087 | 33813 ft | 440 kts | 271° |
| 2026-05-08 15:58 | 44.25399 | 24.78839 | 34205 ft | 438 kts | 271° |
| 2026-05-08 15:59 | 44.25550 | 24.74611 | 34569 ft | 436 kts | 271° |
| 2026-05-08 15:59 | 44.25699 | 24.70399 | 34908 ft | 434 kts | 271° |
| 2026-05-08 15:59 | 44.25846 | 24.66204 | 35239 ft | 432 kts | 271° |
| 2026-05-08 15:59 | 44.25991 | 24.62024 | 35560 ft | 431 kts | 271° |
| 2026-05-08 16:00 | 44.26132 | 24.57858 | 35872 ft | 429 kts | 271° |
| 2026-05-08 16:00 | 44.26271 | 24.53704 | 36180 ft | 428 kts | 271° |
| 2026-05-08 16:00 | 44.26409 | 24.49559 | 36442 ft | 428 kts | 271° |
| 2026-05-08 16:00 | 44.26545 | 24.45422 | 36723 ft | 426 kts | 271° |
| 2026-05-08 16:01 | 44.26679 | 24.41297 | 37005 ft | 425 kts | 271° |
| 2026-05-08 16:01 | 44.26811 | 24.37187 | 37266 ft | 424 kts | 271° |
| 2026-05-08 16:01 | 44.26942 | 24.33084 | 37525 ft | 423 kts | 271° |
| 2026-05-08 16:01 | 44.27071 | 24.28991 | 37776 ft | 422 kts | 271° |
| 2026-05-08 16:02 | 44.27198 | 24.24906 | 37966 ft | 421 kts | 271° |
| 2026-05-08 16:02 | 44.27323 | 24.20829 | 37977 ft | 420 kts | 271° |
| 2026-05-08 16:02 | 44.27568 | 24.12696 | 37976 ft | 420 kts | 270° |
| 2026-05-08 16:03 | 44.27808 | 24.04553 | 37974 ft | 420 kts | 270° |
| 2026-05-08 16:03 | 44.28042 | 23.96417 | 37974 ft | 420 kts | 270° |
| 2026-05-08 16:04 | 44.28270 | 23.88282 | 37974 ft | 420 kts | 270° |
| 2026-05-08 16:04 | 44.28491 | 23.80200 | 37975 ft | 420 kts | 270° |
| 2026-05-08 16:05 | 44.28708 | 23.72061 | 37983 ft | 420 kts | 270° |
| 2026-05-08 16:05 | 44.28920 | 23.63908 | 37972 ft | 420 kts | 270° |
| 2026-05-08 16:06 | 44.29127 | 23.55794 | 37974 ft | 418 kts | 270° |
| 2026-05-08 16:06 | 44.29327 | 23.47671 | 37974 ft | 419 kts | 270° |
| 2026-05-08 16:07 | 44.29522 | 23.39555 | 37973 ft | 419 kts | 270° |
| 2026-05-08 16:07 | 44.29711 | 23.31439 | 37973 ft | 418 kts | 270° |
| 2026-05-08 16:08 | 44.29893 | 23.23329 | 37976 ft | 418 kts | 270° |
| 2026-05-08 16:08 | 44.30070 | 23.15224 | 37974 ft | 418 kts | 270° |
| 2026-05-08 16:09 | 44.30241 | 23.07124 | 37969 ft | 418 kts | 270° |
| 2026-05-08 16:09 | 44.30407 | 22.99014 | 37971 ft | 418 kts | 270° |
| 2026-05-08 16:10 | 44.30567 | 22.90903 | 37972 ft | 418 kts | 270° |
| 2026-05-08 16:10 | 44.30721 | 22.82794 | 37973 ft | 418 kts | 270° |
| 2026-05-08 16:11 | 44.30870 | 22.74681 | 37972 ft | 418 kts | 270° |
| 2026-05-08 16:11 | 44.31011 | 22.66626 | 37972 ft | 418 kts | 269° |
| 2026-05-08 16:12 | 44.30663 | 22.58572 | 37970 ft | 415 kts | 257° |
| 2026-05-08 16:12 | 44.28673 | 22.51056 | 37961 ft | 414 kts | 240° |
| 2026-05-08 16:13 | 44.25388 | 22.44462 | 37961 ft | 414 kts | 234° |
| 2026-05-08 16:13 | 44.21987 | 22.37968 | 37971 ft | 415 kts | 234° |
| 2026-05-08 16:14 | 44.18583 | 22.31477 | 37974 ft | 415 kts | 234° |
| 2026-05-08 16:14 | 44.15167 | 22.24988 | 37970 ft | 416 kts | 234° |
| 2026-05-08 16:15 | 44.11739 | 22.18495 | 37975 ft | 417 kts | 234° |
| 2026-05-08 16:15 | 44.08298 | 22.11990 | 37982 ft | 418 kts | 234° |
| 2026-05-08 16:16 | 44.04850 | 22.05487 | 37998 ft | 419 kts | 234° |
| 2026-05-08 16:16 | 44.01388 | 21.98971 | 38005 ft | 420 kts | 234° |
| 2026-05-08 16:17 | 43.98500 | 21.93549 | 37999 ft | 420 kts | 234° |
| 2026-05-08 16:17 | 43.94431 | 21.85923 | 38019 ft | 421 kts | 234° |
| 2026-05-08 16:18 | 43.90937 | 21.79393 | 38022 ft | 422 kts | 234° |
| 2026-05-08 16:18 | 43.87438 | 21.72867 | 38016 ft | 421 kts | 234° |
| 2026-05-08 16:19 | 43.83969 | 21.66411 | 38017 ft | 421 kts | 234° |
| 2026-05-08 16:19 | 43.80469 | 21.59912 | 38018 ft | 421 kts | 234° |
| 2026-05-08 16:20 | 43.76964 | 21.53417 | 38017 ft | 421 kts | 234° |
| 2026-05-08 16:20 | 43.73457 | 21.46934 | 38016 ft | 421 kts | 234° |
| 2026-05-08 16:21 | 43.69948 | 21.40463 | 38014 ft | 420 kts | 234° |
| 2026-05-08 16:21 | 43.66439 | 21.34005 | 38008 ft | 420 kts | 234° |
| 2026-05-08 16:22 | 43.62930 | 21.27561 | 38004 ft | 420 kts | 234° |
| 2026-05-08 16:22 | 43.59419 | 21.21127 | 38006 ft | 420 kts | 234° |
| 2026-05-08 16:23 | 43.55904 | 21.14702 | 38005 ft | 420 kts | 234° |
| 2026-05-08 16:23 | 43.52386 | 21.08283 | 38009 ft | 420 kts | 234° |
| 2026-05-08 16:24 | 43.48860 | 21.01864 | 38015 ft | 420 kts | 234° |
| 2026-05-08 16:24 | 43.45327 | 20.95448 | 38022 ft | 421 kts | 234° |
| 2026-05-08 16:25 | 43.41775 | 20.89041 | 38017 ft | 422 kts | 232° |
| 2026-05-08 16:25 | 43.37988 | 20.82875 | 38019 ft | 422 kts | 231° |
| 2026-05-08 16:26 | 43.34197 | 20.76702 | 38030 ft | 423 kts | 231° |
| 2026-05-08 16:26 | 43.30425 | 20.70573 | 38032 ft | 423 kts | 231° |
| 2026-05-08 16:27 | 43.26611 | 20.64396 | 38035 ft | 424 kts | 231° |
| 2026-05-08 16:27 | 43.22789 | 20.58222 | 38040 ft | 425 kts | 231° |
| 2026-05-08 16:28 | 43.18956 | 20.52043 | 38041 ft | 425 kts | 231° |
| 2026-05-08 16:28 | 43.15122 | 20.45876 | 38031 ft | 424 kts | 231° |
| 2026-05-08 16:29 | 43.11302 | 20.39744 | 38031 ft | 423 kts | 231° |
| 2026-05-08 16:29 | 43.07480 | 20.33623 | 38032 ft | 423 kts | 231° |
| 2026-05-08 16:30 | 43.03655 | 20.27509 | 38033 ft | 423 kts | 231° |
| 2026-05-08 16:30 | 42.99855 | 20.21446 | 38034 ft | 423 kts | 231° |
| 2026-05-08 16:31 | 42.96028 | 20.15354 | 38021 ft | 422 kts | 231° |
| 2026-05-08 16:31 | 42.92203 | 20.09281 | 38013 ft | 422 kts | 231° |
| 2026-05-08 16:32 | 42.88377 | 20.03216 | 38009 ft | 422 kts | 231° |
| 2026-05-08 16:32 | 42.84545 | 19.97154 | 38008 ft | 422 kts | 231° |
| 2026-05-08 16:33 | 42.80708 | 19.91098 | 38010 ft | 422 kts | 231° |
| 2026-05-08 16:33 | 42.76867 | 19.85046 | 38005 ft | 422 kts | 231° |
| 2026-05-08 16:34 | 42.73018 | 19.78995 | 38001 ft | 423 kts | 231° |
| 2026-05-08 16:34 | 42.69164 | 19.72950 | 37999 ft | 423 kts | 231° |
| 2026-05-08 16:35 | 42.65307 | 19.66910 | 38000 ft | 423 kts | 231° |
| 2026-05-08 16:35 | 42.61444 | 19.60876 | 37995 ft | 424 kts | 231° |
| 2026-05-08 16:36 | 42.57574 | 19.54842 | 37989 ft | 424 kts | 231° |
| 2026-05-08 16:36 | 42.53690 | 19.48799 | 37970 ft | 425 kts | 231° |
| 2026-05-08 16:37 | 42.49803 | 19.42765 | 37982 ft | 425 kts | 231° |
| 2026-05-08 16:37 | 42.45908 | 19.36728 | 37981 ft | 426 kts | 231° |
| 2026-05-08 16:38 | 42.42012 | 19.30705 | 37965 ft | 424 kts | 231° |
| 2026-05-08 16:38 | 42.38072 | 19.24768 | 37949 ft | 425 kts | 227° |
| 2026-05-08 16:39 | 42.33816 | 19.19276 | 37965 ft | 426 kts | 226° |
| 2026-05-08 16:39 | 42.29530 | 19.13756 | 37966 ft | 426 kts | 226° |
| 2026-05-08 16:40 | 42.25240 | 19.08239 | 37972 ft | 426 kts | 226° |
| 2026-05-08 16:40 | 42.20933 | 19.02714 | 37984 ft | 428 kts | 226° |
| 2026-05-08 16:41 | 42.16616 | 18.97187 | 37995 ft | 427 kts | 226° |
| 2026-05-08 16:42 | 42.10163 | 18.88948 | 37996 ft | 426 kts | 226° |
| 2026-05-08 16:42 | 42.05857 | 18.83462 | 37972 ft | 426 kts | 226° |
| 2026-05-08 16:43 | 42.01566 | 18.78008 | 37690 ft | 423 kts | 226° |
| 2026-05-08 16:43 | 42.00149 | 18.76208 | 37292 ft | 423 kts | 225° |
| 2026-05-08 16:43 | 41.97999 | 18.73476 | 36423 ft | 428 kts | 225° |
| 2026-05-08 16:43 | 41.95815 | 18.70700 | 35383 ft | 436 kts | 224° |
| 2026-05-08 16:44 | 41.93589 | 18.67873 | 34362 ft | 444 kts | 223° |
| 2026-05-08 16:44 | 41.91332 | 18.65015 | 33387 ft | 447 kts | 223° |
| 2026-05-08 16:44 | 41.89066 | 18.62154 | 32412 ft | 448 kts | 224° |
| 2026-05-08 16:44 | 41.86792 | 18.59289 | 31495 ft | 448 kts | 224° |
| 2026-05-08 16:45 | 41.84523 | 18.56414 | 30569 ft | 449 kts | 224° |
| 2026-05-08 16:45 | 41.82264 | 18.53526 | 29847 ft | 446 kts | 225° |
| 2026-05-08 16:45 | 41.80043 | 18.50680 | 29272 ft | 437 kts | 225° |
| 2026-05-08 16:45 | 41.77858 | 18.47886 | 28676 ft | 430 kts | 225° |
| 2026-05-08 16:46 | 41.75707 | 18.45140 | 28089 ft | 424 kts | 225° |
| 2026-05-08 16:46 | 41.73585 | 18.42436 | 27510 ft | 418 kts | 225° |
| 2026-05-08 16:46 | 41.71490 | 18.39773 | 26930 ft | 413 kts | 225° |
| 2026-05-08 16:46 | 41.69422 | 18.37146 | 26365 ft | 408 kts | 225° |
| 2026-05-08 16:47 | 41.67376 | 18.34549 | 25795 ft | 403 kts | 225° |
| 2026-05-08 16:47 | 41.65350 | 18.31979 | 25226 ft | 399 kts | 225° |
| 2026-05-08 16:47 | 41.63342 | 18.29433 | 24621 ft | 397 kts | 225° |
| 2026-05-08 16:47 | 41.61348 | 18.26908 | 24116 ft | 393 kts | 225° |
| 2026-05-08 16:48 | 41.59368 | 18.24402 | 23538 ft | 390 kts | 226° |
| 2026-05-08 16:48 | 41.57406 | 18.21921 | 22951 ft | 386 kts | 225° |
| 2026-05-08 16:48 | 41.55466 | 18.19471 | 22389 ft | 381 kts | 226° |
| 2026-05-08 16:48 | 41.53574 | 18.17085 | 21859 ft | 377 kts | 226° |
| 2026-05-08 16:49 | 41.51654 | 18.14664 | 21308 ft | 373 kts | 226° |
| 2026-05-08 16:49 | 41.49822 | 18.12248 | 20775 ft | 368 kts | 230° |
| 2026-05-08 16:49 | 41.48156 | 18.09687 | 20242 ft | 364 kts | 231° |
| 2026-05-08 16:49 | 41.46534 | 18.07182 | 19722 ft | 361 kts | 231° |
| 2026-05-08 16:50 | 41.44898 | 18.04662 | 19176 ft | 358 kts | 231° |
| 2026-05-08 16:50 | 41.43272 | 18.02165 | 18649 ft | 356 kts | 231° |
| 2026-05-08 16:50 | 41.41653 | 17.99681 | 18120 ft | 353 kts | 231° |
| 2026-05-08 16:50 | 41.40048 | 17.97224 | 17587 ft | 349 kts | 231° |
| 2026-05-08 16:51 | 41.38461 | 17.94796 | 17074 ft | 346 kts | 231° |
| 2026-05-08 16:51 | 41.36891 | 17.92394 | 16562 ft | 342 kts | 231° |
| 2026-05-08 16:51 | 41.35332 | 17.90013 | 16062 ft | 339 kts | 231° |
| 2026-05-08 16:51 | 41.33788 | 17.87654 | 15555 ft | 337 kts | 230° |
| 2026-05-08 16:52 | 41.32253 | 17.85312 | 15058 ft | 335 kts | 230° |
| 2026-05-08 16:52 | 41.30727 | 17.82985 | 14563 ft | 333 kts | 230° |
| 2026-05-08 16:52 | 41.29208 | 17.80671 | 14069 ft | 331 kts | 230° |
| 2026-05-08 16:52 | 41.27698 | 17.78372 | 13558 ft | 329 kts | 230° |
| 2026-05-08 16:53 | 41.24713 | 17.73832 | 12593 ft | 323 kts | 230° |
| 2026-05-08 16:53 | 41.23239 | 17.71593 | 12119 ft | 320 kts | 230° |
| 2026-05-08 16:53 | 41.22036 | 17.69154 | 11639 ft | 314 kts | 248° |
| 2026-05-08 16:54 | 41.21550 | 17.66360 | 11180 ft | 310 kts | 268° |
| 2026-05-08 16:54 | 41.21825 | 17.63541 | 10722 ft | 309 kts | 287° |
| 2026-05-08 16:54 | 41.22774 | 17.61002 | 10344 ft | 305 kts | 300° |
| 2026-05-08 16:54 | 41.23854 | 17.58646 | 10220 ft | 292 kts | 300° |
| 2026-05-08 16:55 | 41.24891 | 17.56364 | 9932 ft | 286 kts | 300° |
| 2026-05-08 16:55 | 41.25896 | 17.54134 | 9782 ft | 279 kts | 300° |
| 2026-05-08 16:55 | 41.26903 | 17.51882 | 9654 ft | 286 kts | 300° |
| 2026-05-08 16:55 | 41.27917 | 17.49614 | 9522 ft | 284 kts | 300° |
| 2026-05-08 16:56 | 41.28926 | 17.47364 | 9397 ft | 283 kts | 300° |
| 2026-05-08 16:56 | 41.29829 | 17.45048 | 9215 ft | 283 kts | 288° |
| 2026-05-08 16:56 | 41.30051 | 17.42466 | 8849 ft | 283 kts | 263° |
| 2026-05-08 16:56 | 41.29538 | 17.39948 | 8408 ft | 284 kts | 252° |
| 2026-05-08 16:57 | 41.28908 | 17.37406 | 7685 ft | 295 kts | 253° |
| 2026-05-08 16:57 | 41.28266 | 17.34791 | 7233 ft | 295 kts | 253° |
| 2026-05-08 16:57 | 41.27646 | 17.32264 | 6991 ft | 282 kts | 253° |
| 2026-05-08 16:57 | 41.27043 | 17.29788 | 6376 ft | 283 kts | 253° |
| 2026-05-08 16:58 | 41.26438 | 17.27297 | 5966 ft | 282 kts | 253° |
| 2026-05-08 16:58 | 41.25837 | 17.24832 | 5591 ft | 279 kts | 253° |
| 2026-05-08 16:58 | 41.25240 | 17.22387 | 5213 ft | 277 kts | 253° |
| 2026-05-08 16:58 | 41.24648 | 17.19957 | 4849 ft | 276 kts | 253° |
| 2026-05-08 16:59 | 41.24057 | 17.17534 | 4464 ft | 275 kts | 253° |
| 2026-05-08 16:59 | 41.23469 | 17.15126 | 4127 ft | 272 kts | 252° |
| 2026-05-08 16:59 | 41.22890 | 17.12765 | 4016 ft | 264 kts | 252° |
| 2026-05-08 16:59 | 41.22340 | 17.10520 | 3998 ft | 245 kts | 252° |
| 2026-05-08 17:00 | 41.21835 | 17.08467 | 4002 ft | 224 kts | 253° |
| 2026-05-08 17:00 | 41.21399 | 17.06559 | 3958 ft | 209 kts | 261° |
| 2026-05-08 17:00 | 41.21128 | 17.04708 | 3871 ft | 205 kts | 259° |
| 2026-05-08 17:00 | 41.20852 | 17.02831 | 3588 ft | 211 kts | 259° |
| 2026-05-08 17:01 | 41.20573 | 17.00993 | 3512 ft | 192 kts | 259° |
| 2026-05-08 17:01 | 41.20320 | 16.99340 | 3417 ft | 180 kts | 259° |
| 2026-05-08 17:01 | 41.19990 | 16.97792 | 3312 ft | 170 kts | 248° |
| 2026-05-08 17:01 | 41.19575 | 16.96362 | 3160 ft | 163 kts | 249° |
| 2026-05-08 17:02 | 41.19176 | 16.94952 | 2943 ft | 162 kts | 249° |
| 2026-05-08 17:02 | 41.18782 | 16.93551 | 2643 ft | 164 kts | 249° |
| 2026-05-08 17:02 | 41.18378 | 16.92118 | 2366 ft | 166 kts | 250° |
| 2026-05-08 17:02 | 41.17976 | 16.90689 | 2177 ft | 162 kts | 249° |
| 2026-05-08 17:03 | 41.17591 | 16.89316 | 2016 ft | 156 kts | 250° |
| 2026-05-08 17:03 | 41.17205 | 16.87950 | 2017 ft | 166 kts | 250° |
| 2026-05-08 17:03 | 41.16809 | 16.86544 | 1912 ft | 158 kts | 250° |
| 2026-05-08 17:03 | 41.16419 | 16.85199 | 1666 ft | 158 kts | 249° |
| 2026-05-08 17:04 | 41.16002 | 16.83850 | 1301 ft | 159 kts | 248° |
| 2026-05-08 17:04 | 41.15566 | 16.82490 | 964 ft | 158 kts | 250° |
| 2026-05-08 17:04 | 41.15196 | 16.81145 | 705 ft | 154 kts | 253° |
| 2026-05-08 17:04 | 41.14884 | 16.79791 | 519 ft | 155 kts | 253° |
| 2026-05-08 17:05 | 41.14539 | 16.78449 | 270 ft | 150 kts | 249° |
| 2026-05-08 17:05 | 41.14160 | 16.77143 | 128 ft | 151 kts | 249° |
| 2026-05-08 17:05 | 41.13829 | 16.75973 | 144 ft | 110 kts | 249° |
| 2026-05-08 17:05 | 41.13617 | 16.75230 | 161 ft | 69 kts | 250° |
| 2026-05-08 17:06 | 41.13519 | 16.74884 | 165 ft | 28 kts | 251° |
| 2026-05-08 17:06 | 41.13412 | 16.74749 | 171 ft | 19 kts | 145° |
| 2026-05-08 17:06 | 41.13345 | 16.74900 | 172 ft | 19 kts | 100° |
| 2026-05-08 17:06 | 41.13386 | 16.75080 | 167 ft | 22 kts | 70° |
| 2026-05-08 17:07 | 41.13447 | 16.75291 | 160 ft | 26 kts | 68° |
| 2026-05-08 17:07 | 41.13509 | 16.75517 | 158 ft | 27 kts | 68° |
| 2026-05-08 17:07 | 41.13568 | 16.75721 | 153 ft | 22 kts | 69° |
| 2026-05-08 17:07 | 41.13617 | 16.75889 | 150 ft | 14 kts | 69° |
| 2026-05-08 17:08 | 41.13622 | 16.76039 | 144 ft | 18 kts | 124° |
| 2026-05-08 17:08 | 41.13550 | 16.76146 | 145 ft | 14 kts | 93° |
| 2026-05-08 17:08 | 41.13587 | 16.76288 | 141 ft | 16 kts | 77° |
| 2026-05-08 17:08 | 41.13533 | 16.76341 | 143 ft | 4 kts | 162° |